Time;durP1;ratioP1;P1;durP2;ratioP2;P2;SDS_P1;SDS_P2;PMS_P1;PMS_P2;Temp;Humidity;BMP_temperature;BMP_pressure;BME280_temperature;BME280_humidity;BME280_pressure;Samples;Min_cycle;Max_cycle;Signal;HPM_P1;HPM_P2
2023/05/12 00:02:08;;;;;;;4.57;3.57;;;18.00;99.90;;;;;;5063877;28;20206;-52
2023/05/12 00:04:34;;;;;;;4.50;3.83;;;17.90;99.90;;;;;;5065354;28;20241;-54
2023/05/12 00:07:00;;;;;;;4.07;3.60;;;17.90;99.90;;;;;;5063606;28;20663;-55
2023/05/12 00:09:26;;;;;;;4.40;4.00;;;17.90;99.90;;;;;;5069718;28;20477;-54
2023/05/12 00:11:52;;;;;;;4.23;3.80;;;17.90;99.90;;;;;;5068881;28;20196;-53
2023/05/12 00:14:18;;;;;;;5.53;4.07;;;17.90;99.90;;;;;;5069746;28;20176;-53
2023/05/12 00:16:44;;;;;;;5.83;4.27;;;17.90;99.90;;;;;;5067874;28;20656;-54
2023/05/12 00:19:09;;;;;;;3.70;3.30;;;18.00;99.90;;;;;;5069501;28;20455;-54
2023/05/12 00:21:35;;;;;;;5.40;4.00;;;17.90;99.90;;;;;;5066309;28;20704;-53
2023/05/12 00:24:00;;;;;;;5.40;3.93;;;17.90;99.90;;;;;;5069643;28;20210;-53
2023/05/12 00:26:26;;;;;;;5.03;3.10;;;17.90;99.90;;;;;;5066924;28;20653;-54
2023/05/12 00:28:52;;;;;;;4.23;3.83;;;17.80;99.90;;;;;;5069148;28;20203;-54
2023/05/12 00:31:17;;;;;;;4.70;4.07;;;17.90;99.90;;;;;;5065676;28;20184;-54
2023/05/12 00:33:43;;;;;;;4.67;3.70;;;18.00;99.90;;;;;;5068943;28;20722;-54
2023/05/12 00:36:08;;;;;;;5.83;4.10;;;17.90;99.90;;;;;;5065590;28;20246;-53
2023/05/12 00:38:36;;;;;;;4.50;4.10;;;17.80;99.90;;;;;;5067932;28;20212;-52
2023/05/12 00:41:03;;;;;;;5.20;3.70;;;17.70;99.90;;;;;;5064915;28;20279;-53
2023/05/12 00:43:30;;;;;;;6.63;4.30;;;17.70;99.90;;;;;;5065802;28;20437;-55
2023/05/12 00:45:55;;;;;;;5.07;4.07;;;17.70;99.90;;;;;;5064169;28;20940;-55
2023/05/12 00:48:21;;;;;;;6.60;3.70;;;17.70;99.90;;;;;;5065427;28;20497;-54
2023/05/12 00:50:47;;;;;;;7.27;4.60;;;17.70;99.90;;;;;;5065867;28;20214;-53
2023/05/12 00:53:13;;;;;;;4.50;4.10;;;17.70;99.90;;;;;;5066061;28;20476;-55
2023/05/12 00:55:39;;;;;;;3.97;3.40;;;17.70;99.90;;;;;;5065283;28;20587;-55
2023/05/12 00:58:04;;;;;;;4.97;4.47;;;17.70;99.90;;;;;;5063670;28;20270;-53
2023/05/12 01:00:30;;;;;;;4.90;4.00;;;17.70;99.90;;;;;;5062906;28;20704;-54
2023/05/12 01:02:57;;;;;;;5.00;3.73;;;17.70;99.90;;;;;;5066651;28;20188;-55
2023/05/12 01:05:29;;;;;;;5.40;4.60;;;17.70;99.90;;;;;;5065465;28;20195;-53
2023/05/12 01:07:57;;;;;;;4.80;4.27;;;17.70;99.90;;;;;;5064928;28;20770;-54
2023/05/12 01:10:23;;;;;;;6.90;4.90;;;17.60;99.90;;;;;;5064470;28;20446;-54
2023/05/12 01:12:49;;;;;;;5.87;4.37;;;17.50;99.90;;;;;;5065785;28;20604;-55
2023/05/12 01:15:15;;;;;;;4.83;4.43;;;17.50;99.90;;;;;;5060533;28;20199;-54
2023/05/12 01:17:51;;;;;;;4.77;4.37;;;17.50;99.90;;;;;;5064652;28;20275;-55
2023/05/12 01:20:18;;;;;;;5.07;4.57;;;17.60;99.90;;;;;;5065578;28;20438;-54
2023/05/12 01:22:46;;;;;;;4.00;3.60;;;17.40;99.90;;;;;;5066067;28;20448;-55
2023/05/12 01:25:13;;;;;;;7.90;4.50;;;17.40;99.90;;;;;;5063644;28;20438;-55
2023/05/12 01:27:40;;;;;;;5.40;4.43;;;17.40;99.90;;;;;;5066771;28;21095;-52
2023/05/12 01:30:06;;;;;;;5.10;4.70;;;17.40;99.90;;;;;;5061838;28;21025;-53
2023/05/12 01:32:32;;;;;;;5.27;4.40;;;17.30;99.90;;;;;;5063102;28;20814;-54
2023/05/12 01:34:59;;;;;;;5.67;4.63;;;17.30;99.90;;;;;;5071633;28;20524;-54
2023/05/12 01:37:25;;;;;;;4.60;4.20;;;17.30;99.90;;;;;;5072777;28;20640;-53
2023/05/12 01:39:52;;;;;;;5.40;4.30;;;17.30;99.90;;;;;;5070163;28;20523;-54
2023/05/12 01:42:18;;;;;;;4.23;3.80;;;17.40;99.90;;;;;;5070686;28;21119;-53
2023/05/12 01:44:43;;;;;;;5.43;4.10;;;17.30;99.90;;;;;;5066534;28;20501;-52
2023/05/12 01:47:10;;;;;;;4.23;3.83;;;17.20;99.90;;;;;;5069811;28;20184;-52
2023/05/12 01:49:38;;;;;;;5.80;4.00;;;17.10;99.90;;;;;;5070239;28;20212;-54
2023/05/12 01:52:04;;;;;;;5.30;4.33;;;17.10;99.90;;;;;;5063690;28;20436;-54
2023/05/12 01:54:30;;;;;;;4.90;4.37;;;17.10;99.90;;;;;;5064279;28;20447;-55
2023/05/12 01:56:55;;;;;;;5.00;4.50;;;17.10;99.90;;;;;;5069255;28;20470;-52
2023/05/12 01:59:21;;;;;;;4.90;3.77;;;17.00;99.90;;;;;;5070689;28;20747;-53
2023/05/12 02:01:50;;;;;;;4.27;3.87;;;17.00;99.90;;;;;;5067724;28;20198;-54
2023/05/12 02:04:15;;;;;;;5.43;4.30;;;16.90;99.90;;;;;;5069171;28;20226;-53
2023/05/12 02:06:41;;;;;;;4.77;4.37;;;16.90;99.90;;;;;;5065635;28;20482;-53
2023/05/12 02:09:07;;;;;;;5.13;4.63;;;16.90;99.90;;;;;;5068882;28;20211;-55
2023/05/12 02:11:32;;;;;;;5.37;4.87;;;16.90;99.90;;;;;;5065849;28;20191;-53
2023/05/12 02:13:58;;;;;;;6.03;4.70;;;17.00;99.90;;;;;;5067216;28;20180;-56
2023/05/12 02:16:23;;;;;;;5.90;4.70;;;17.00;99.90;;;;;;5069428;28;20180;-53
2023/05/12 02:18:49;;;;;;;5.07;4.50;;;16.90;99.90;;;;;;5067358;28;20194;-52
2023/05/12 02:21:15;;;;;;;5.90;5.23;;;17.00;99.90;;;;;;5068543;28;20227;-54
2023/05/12 02:23:40;;;;;;;5.13;4.63;;;16.90;99.90;;;;;;5068899;28;20207;-53
2023/05/12 02:26:06;;;;;;;7.00;5.77;;;16.90;99.90;;;;;;5071206;28;20210;-53
2023/05/12 02:28:32;;;;;;;6.03;5.37;;;16.80;99.90;;;;;;5071513;28;20691;-55
2023/05/12 02:30:58;;;;;;;5.87;5.37;;;16.80;99.90;;;;;;5072598;28;20184;-55
2023/05/12 02:33:24;;;;;;;8.37;5.60;;;16.80;99.90;;;;;;5075994;28;20192;-53
2023/05/12 02:35:49;;;;;;;7.67;6.03;;;16.60;99.90;;;;;;5070169;28;20448;-53
2023/05/12 02:38:15;;;;;;;7.30;5.40;;;16.70;99.90;;;;;;5071889;28;20230;-53
2023/05/12 02:40:41;;;;;;;8.00;6.27;;;16.70;99.90;;;;;;5066530;28;20187;-54
2023/05/12 02:43:07;;;;;;;6.83;6.13;;;16.70;99.90;;;;;;5066864;28;20442;-54
2023/05/12 02:45:32;;;;;;;8.20;6.33;;;16.70;99.90;;;;;;5067033;28;20546;-54
2023/05/12 02:47:58;;;;;;;7.20;5.43;;;16.70;99.90;;;;;;5069860;28;20204;-53
2023/05/12 02:50:24;;;;;;;9.67;6.50;;;16.70;99.90;;;;;;5067416;28;20600;-54
2023/05/12 02:52:50;;;;;;;9.53;6.73;;;16.60;99.90;;;;;;5067440;28;20179;-56
2023/05/12 02:55:15;;;;;;;8.43;6.63;;;16.50;99.90;;;;;;5065478;28;20202;-54
2023/05/12 02:57:42;;;;;;;7.57;5.83;;;16.50;99.90;;;;;;5091108;28;20211;-55
2023/05/12 03:00:09;;;;;;;6.53;5.80;;;16.50;99.90;;;;;;5075843;28;20179;-54
2023/05/12 03:02:37;;;;;;;7.77;6.03;;;16.50;99.90;;;;;;5064574;28;22935;-53
2023/05/12 03:05:03;;;;;;;8.03;6.47;;;16.60;99.90;;;;;;5066486;28;20567;-53
2023/05/12 03:07:29;;;;;;;8.70;6.57;;;16.50;99.90;;;;;;5076939;28;20467;-52
2023/05/12 03:09:55;;;;;;;6.30;5.70;;;16.60;99.90;;;;;;5063365;28;20442;-53
2023/05/12 03:12:20;;;;;;;10.10;6.13;;;16.60;99.90;;;;;;5063761;28;20471;-56
2023/05/12 03:14:46;;;;;;;8.27;6.50;;;16.50;99.90;;;;;;5069185;28;20188;-53
2023/05/12 03:17:12;;;;;;;6.97;6.37;;;16.50;99.90;;;;;;5071078;28;20207;-54
2023/05/12 03:19:37;;;;;;;6.77;6.10;;;16.50;99.90;;;;;;5066367;28;20704;-54
2023/05/12 03:22:03;;;;;;;7.57;5.83;;;16.50;99.90;;;;;;5068665;28;20195;-54
2023/05/12 03:24:29;;;;;;;7.87;6.07;;;16.50;99.90;;;;;;5068018;28;20590;-55
2023/05/12 03:26:55;;;;;;;6.80;6.10;;;16.50;99.90;;;;;;5066146;28;20527;-54
2023/05/12 03:29:21;;;;;;;7.40;6.57;;;16.50;99.90;;;;;;5067420;28;20208;-56
2023/05/12 03:31:46;;;;;;;6.67;6.00;;;16.50;99.90;;;;;;5066048;28;20543;-56
2023/05/12 03:34:12;;;;;;;7.30;6.60;;;16.60;99.90;;;;;;5066947;28;20453;-53
2023/05/12 03:36:38;;;;;;;6.73;6.03;;;16.50;99.90;;;;;;5062946;28;20183;-54
2023/05/12 03:39:03;;;;;;;7.30;6.60;;;16.60;99.90;;;;;;5066461;28;20659;-54
2023/05/12 03:41:29;;;;;;;8.27;6.73;;;16.60;99.90;;;;;;5063697;28;20192;-54
2023/05/12 03:43:54;;;;;;;8.17;6.23;;;16.50;99.90;;;;;;5082088;28;20511;-55
2023/05/12 03:46:21;;;;;;;7.30;6.43;;;16.60;99.90;;;;;;5064958;28;20196;-53
2023/05/12 03:48:47;;;;;;;7.07;6.47;;;16.60;99.90;;;;;;5069950;28;20208;-54
2023/05/12 03:51:12;;;;;;;7.33;6.63;;;16.60;99.90;;;;;;5064493;28;20480;-52
2023/05/12 03:53:45;;;;;;;6.80;6.10;;;16.60;99.90;;;;;;5067885;28;20955;-54
2023/05/12 03:56:11;;;;;;;7.17;6.27;;;16.60;99.90;;;;;;5068580;28;20560;-55
2023/05/12 03:58:36;;;;;;;9.33;5.87;;;16.70;99.90;;;;;;5066120;28;20454;-54
2023/05/12 04:01:02;;;;;;;7.47;5.80;;;16.70;99.90;;;;;;5063307;28;20670;-53
2023/05/12 04:03:28;;;;;;;5.93;5.33;;;16.70;99.90;;;;;;5065318;28;20260;-53
2023/05/12 04:06:04;;;;;;;6.47;5.97;;;16.80;99.90;;;;;;5064796;28;20222;-54
2023/05/12 04:08:30;;;;;;;5.90;5.30;;;16.70;99.90;;;;;;5070124;28;20469;-55
2023/05/12 04:10:57;;;;;;;6.77;6.03;;;16.70;99.90;;;;;;5065839;28;20527;-52
2023/05/12 04:13:23;;;;;;;6.57;5.97;;;16.70;99.90;;;;;;5078240;28;20438;-54
2023/05/12 04:15:49;;;;;;;6.43;5.83;;;16.70;99.90;;;;;;5064969;28;20442;-56
2023/05/12 04:18:15;;;;;;;6.43;5.83;;;16.60;99.90;;;;;;5065851;28;20226;-52
2023/05/12 04:20:41;;;;;;;6.57;5.67;;;16.60;99.90;;;;;;5067005;28;20199;-54
2023/05/12 04:23:06;;;;;;;6.50;5.50;;;16.60;99.90;;;;;;5064391;28;20442;-53
2023/05/12 04:25:32;;;;;;;6.67;6.07;;;16.60;99.90;;;;;;5063279;28;20271;-54
2023/05/12 04:27:58;;;;;;;8.73;5.80;;;16.60;99.90;;;;;;5064864;28;20291;-54
2023/05/12 04:30:24;;;;;;;7.03;5.90;;;16.60;99.90;;;;;;5067151;28;20211;-54
2023/05/12 04:32:49;;;;;;;7.50;6.17;;;16.60;99.90;;;;;;5067478;28;20187;-54
2023/05/12 04:35:15;;;;;;;6.77;6.10;;;16.60;99.90;;;;;;5067139;28;20184;-52
2023/05/12 04:37:41;;;;;;;6.40;5.90;;;16.70;99.90;;;;;;5069535;28;20183;-55
2023/05/12 04:40:07;;;;;;;8.50;6.17;;;16.70;99.90;;;;;;5068227;28;20192;-54
2023/05/12 04:42:33;;;;;;;6.60;5.90;;;16.80;99.90;;;;;;5066499;28;20192;-55
2023/05/12 04:44:59;;;;;;;6.83;6.33;;;16.70;99.90;;;;;;5064449;28;20449;-54
2023/05/12 04:47:24;;;;;;;7.47;6.30;;;16.70;99.90;;;;;;5064821;28;20457;-56
2023/05/12 04:49:50;;;;;;;6.70;5.57;;;16.70;99.90;;;;;;5060496;28;20219;-54
2023/05/12 04:52:16;;;;;;;7.77;5.70;;;16.80;99.90;;;;;;5069381;28;20215;-53
2023/05/12 04:54:42;;;;;;;7.20;5.60;;;17.00;99.90;;;;;;5068186;28;20241;-54
2023/05/12 04:57:08;;;;;;;6.47;5.90;;;17.00;99.90;;;;;;5069217;28;20354;-55
2023/05/12 04:59:34;;;;;;;7.23;5.90;;;17.00;99.90;;;;;;5061403;28;20537;-53
2023/05/12 05:02:00;;;;;;;7.00;6.30;;;17.10;99.90;;;;;;5065241;28;20187;-52
2023/05/12 05:04:26;;;;;;;6.87;6.20;;;17.10;99.90;;;;;;5070263;28;20457;-55
2023/05/12 05:06:51;;;;;;;7.50;6.80;;;17.10;99.90;;;;;;5080380;28;20199;-55
2023/05/12 05:09:17;;;;;;;7.60;6.73;;;17.30;99.90;;;;;;5084345;28;20212;-53
2023/05/12 05:11:43;;;;;;;7.10;6.07;;;17.40;99.90;;;;;;5062416;28;20246;-52
2023/05/12 05:14:08;;;;;;;7.03;6.43;;;17.40;99.90;;;;;;5062671;28;20196;-55
2023/05/12 05:16:34;;;;;;;7.50;6.80;;;17.40;99.90;;;;;;5064467;28;20187;-52
2023/05/12 05:19:00;;;;;;;7.77;6.73;;;17.50;99.90;;;;;;5066835;28;20203;-54
2023/05/12 05:21:25;;;;;;;10.27;6.67;;;17.60;99.90;;;;;;5063639;28;20496;-52
2023/05/12 05:23:51;;;;;;;9.80;6.40;;;17.60;99.90;;;;;;5083935;28;20183;-52
2023/05/12 05:26:17;;;;;;;7.60;6.90;;;17.60;99.90;;;;;;5069820;28;20196;-53
2023/05/12 05:28:43;;;;;;;9.67;6.97;;;17.70;99.90;;;;;;5067377;28;20959;-54
2023/05/12 05:31:16;;;;;;;8.23;6.60;;;17.80;99.90;;;;;;5068798;28;20278;-53
2023/05/12 05:33:43;;;;;;;9.03;6.20;;;17.80;99.90;;;;;;5066827;28;20262;-55
2023/05/12 05:36:09;;;;;;;9.13;6.67;;;17.90;99.90;;;;;;5068722;28;20476;-55
2023/05/12 05:38:35;;;;;;;10.63;8.67;;;18.00;99.90;;;;;;5066725;28;20452;-54
2023/05/12 05:41:01;;;;;;;6.93;6.13;;;18.20;99.90;;;;;;5068383;28;20438;-53
2023/05/12 05:43:26;;;;;;;7.73;6.93;;;18.40;99.90;;;;;;5065724;28;20202;-52
2023/05/12 05:45:52;;;;;;;7.00;5.97;;;18.60;99.90;;;;;;5065800;28;20196;-53
2023/05/12 05:48:18;;;;;;;9.90;7.70;;;18.70;99.90;;;;;;5064723;28;20216;-53
2023/05/12 05:50:44;;;;;;;8.03;7.23;;;18.70;99.90;;;;;;5065331;28;20652;-52
2023/05/12 05:53:10;;;;;;;7.60;6.80;;;18.60;99.90;;;;;;5057935;28;20446;-56
2023/05/12 05:55:35;;;;;;;7.53;6.73;;;18.70;99.90;;;;;;5057071;28;20188;-54
2023/05/12 05:58:01;;;;;;;10.43;5.80;;;19.00;99.90;;;;;;5057346;28;20203;-55
2023/05/12 06:00:26;;;;;;;9.97;6.20;;;19.10;99.90;;;;;;5062976;28;20684;-54
2023/05/12 06:02:52;;;;;;;6.60;6.00;;;19.30;99.90;;;;;;5068634;28;20179;-54
2023/05/12 06:05:17;;;;;;;6.63;6.00;;;19.40;99.90;;;;;;5064129;28;20267;-53
2023/05/12 06:07:43;;;;;;;10.43;6.37;;;19.70;99.90;;;;;;5065996;28;20248;-54
2023/05/12 06:10:09;;;;;;;7.73;6.93;;;19.90;99.90;;;;;;5062252;28;20461;-54
2023/05/12 06:12:34;;;;;;;9.47;7.60;;;20.00;99.90;;;;;;5063895;28;20192;-53
2023/05/12 06:15:00;;;;;;;7.10;6.50;;;20.00;99.90;;;;;;5057433;28;20205;-56
2023/05/12 06:17:26;;;;;;;11.23;6.97;;;19.90;99.90;;;;;;5061574;28;20277;-54
2023/05/12 06:19:51;;;;;;;8.40;6.57;;;19.90;99.90;;;;;;5062858;28;20661;-54
2023/05/12 06:22:17;;;;;;;7.20;6.07;;;20.00;99.90;;;;;;5067742;28;20200;-53
2023/05/12 06:24:42;;;;;;;7.57;6.27;;;20.00;99.90;;;;;;5064928;28;20200;-54
2023/05/12 06:27:08;;;;;;;6.23;5.73;;;20.00;99.90;;;;;;5071632;28;20215;-55
2023/05/12 06:29:33;;;;;;;6.73;6.13;;;19.80;99.90;;;;;;5069882;28;20215;-54
2023/05/12 06:31:59;;;;;;;8.10;7.30;;;19.80;99.90;;;;;;5071673;28;20184;-53
2023/05/12 06:34:25;;;;;;;8.80;6.87;;;19.90;99.90;;;;;;5072148;28;20265;-53
2023/05/12 06:36:51;;;;;;;6.63;6.00;;;20.20;99.90;;;;;;5071724;28;20169;-55
2023/05/12 06:39:17;;;;;;;6.90;6.30;;;20.60;99.90;;;;;;5068232;28;20443;-56
2023/05/12 06:41:42;;;;;;;9.27;6.70;;;20.90;99.90;;;;;;5067203;28;20195;-56
2023/05/12 06:44:11;;;;;;;7.30;6.60;;;21.10;99.90;;;;;;5066510;28;20223;-54
2023/05/12 06:46:38;;;;;;;11.17;6.13;;;21.10;99.90;;;;;;5062228;28;20195;-54
2023/05/12 06:49:04;;;;;;;7.07;6.37;;;21.00;99.90;;;;;;5069435;28;20476;-53
2023/05/12 06:51:30;;;;;;;7.43;6.30;;;20.70;99.90;;;;;;5064412;28;20447;-52
2023/05/12 06:53:55;;;;;;;6.67;6.07;;;20.40;99.90;;;;;;5064019;28;20441;-55
2023/05/12 06:56:22;;;;;;;9.40;6.43;;;20.20;99.90;;;;;;5062745;28;20204;-51
2023/05/12 06:58:48;;;;;;;10.07;5.80;;;20.30;99.90;;;;;;5071286;28;20240;-53
2023/05/12 07:01:14;;;;;;;6.60;6.00;;;20.60;99.90;;;;;;5061709;28;20444;-53
2023/05/12 07:03:40;;;;;;;7.50;6.40;;;20.80;99.90;;;;;;5067923;28;20499;-53
2023/05/12 07:06:05;;;;;;;7.63;5.90;;;21.00;99.90;;;;;;5065502;28;20281;-54
2023/05/12 07:08:31;;;;;;;10.30;5.60;;;21.30;99.90;;;;;;5072458;28;20200;-53
2023/05/12 07:10:59;;;;;;;6.53;5.70;;;21.30;99.90;;;;;;5069509;28;20195;-53
2023/05/12 07:13:25;;;;;;;7.23;6.40;;;21.50;99.90;;;;;;5065431;28;20192;-53
2023/05/12 07:15:50;;;;;;;12.40;6.30;;;21.70;99.90;;;;;;5065672;28;20452;-53
2023/05/12 07:18:16;;;;;;;5.10;4.67;;;21.80;99.90;;;;;;5069670;28;20195;-53
2023/05/12 07:20:42;;;;;;;5.80;5.30;;;21.70;99.90;;;;;;5065960;28;20276;-53
2023/05/12 07:23:08;;;;;;;6.23;5.53;;;21.60;99.90;;;;;;5066471;28;20200;-54
2023/05/12 07:25:33;;;;;;;5.80;5.10;;;21.50;99.90;;;;;;5066455;28;20480;-54
2023/05/12 07:27:59;;;;;;;6.07;5.47;;;21.40;99.90;;;;;;5066993;28;20466;-54
2023/05/12 07:30:25;;;;;;;5.13;4.63;;;21.30;99.90;;;;;;5067570;28;20203;-52
2023/05/12 07:32:51;;;;;;;7.47;4.70;;;21.20;99.90;;;;;;5066590;28;20210;-56
2023/05/12 07:35:16;;;;;;;7.30;5.00;;;21.30;99.90;;;;;;5068359;28;20193;-52
2023/05/12 07:37:42;;;;;;;6.43;5.00;;;21.50;99.90;;;;;;5068400;28;21105;-55
2023/05/12 07:40:08;;;;;;;8.10;4.70;;;21.60;99.90;;;;;;5064514;28;20195;-53
2023/05/12 07:42:33;;;;;;;7.97;5.40;;;21.70;99.90;;;;;;5068259;28;20190;-53
2023/05/12 07:44:59;;;;;;;5.30;4.80;;;21.80;99.90;;;;;;5063767;28;20189;-54
2023/05/12 07:47:25;;;;;;;6.30;5.70;;;21.80;99.90;;;;;;5069201;28;20214;-55
2023/05/12 07:49:50;;;;;;;7.83;5.50;;;21.90;99.90;;;;;;5067716;28;20249;-53
2023/05/12 07:52:16;;;;;;;5.93;4.73;;;21.90;99.90;;;;;;5069368;28;20193;-54
2023/05/12 07:54:41;;;;;;;6.33;5.00;;;22.10;99.90;;;;;;5068104;28;20256;-56
2023/05/12 07:57:07;;;;;;;6.23;5.63;;;22.40;99.90;;;;;;5062820;28;20252;-55
2023/05/12 07:59:32;;;;;;;42.50;10.73;;;22.70;99.90;;;;;;5066281;28;20662;-54
2023/05/12 08:01:58;;;;;;;10.63;6.10;;;22.90;99.90;;;;;;5066865;28;20243;-54
2023/05/12 08:04:24;;;;;;;6.33;5.57;;;22.90;99.90;;;;;;5067760;28;20276;-52
2023/05/12 08:06:49;;;;;;;6.57;5.87;;;23.20;99.90;;;;;;5062215;28;20588;-53
2023/05/12 08:09:15;;;;;;;8.10;5.53;;;23.40;99.90;;;;;;5062035;28;20225;-54
2023/05/12 08:11:41;;;;;;;6.00;5.40;;;23.50;99.90;;;;;;5065292;28;20192;-53
2023/05/12 08:14:06;;;;;;;6.93;5.13;;;23.40;99.90;;;;;;5069957;28;20215;-53
2023/05/12 08:16:32;;;;;;;6.30;5.70;;;23.00;99.90;;;;;;5065225;28;20583;-54
2023/05/12 08:18:58;;;;;;;6.93;5.50;;;23.10;99.90;;;;;;5067250;28;20196;-53
2023/05/12 08:21:23;;;;;;;6.73;5.27;;;22.50;99.90;;;;;;5066288;28;20200;-53
2023/05/12 08:23:49;;;;;;;7.13;5.40;;;22.30;99.90;;;;;;5060398;28;20479;-54
2023/05/12 08:26:15;;;;;;;5.37;4.83;;;22.20;99.90;;;;;;5069327;28;20196;-54
2023/05/12 08:28:40;;;;;;;7.73;5.80;;;22.40;99.90;;;;;;5064058;28;20586;-52
2023/05/12 08:31:06;;;;;;;5.50;5.00;;;22.50;99.90;;;;;;5061098;28;20289;-55
2023/05/12 08:33:34;;;;;;;6.20;5.20;;;22.70;99.90;;;;;;5063778;28;20278;-52
2023/05/12 08:36:00;;;;;;;11.20;6.07;;;22.90;99.90;;;;;;5068849;28;20191;-56
2023/05/12 08:38:26;;;;;;;9.13;5.57;;;23.00;99.90;;;;;;5068933;28;20531;-54
2023/05/12 08:40:58;;;;;;;7.50;4.63;;;23.00;99.90;;;;;;5063893;28;21050;-54
2023/05/12 08:43:29;;;;;;;6.77;4.80;;;23.00;99.90;;;;;;5087490;28;20189;-56
2023/05/12 08:45:57;;;;;;;6.67;4.80;;;22.80;99.90;;;;;;5072152;28;20454;-52
2023/05/12 08:48:26;;;;;;;5.50;5.00;;;22.60;99.90;;;;;;5067868;28;20463;-53
2023/05/12 08:50:53;;;;;;;4.93;4.53;;;22.60;99.90;;;;;;5059723;28;22778;-54
2023/05/12 08:53:23;;;;;;;4.87;4.37;;;22.80;99.90;;;;;;5065088;28;20510;-56
2023/05/12 08:55:50;;;;;;;5.63;4.50;;;23.00;99.90;;;;;;5067716;28;20913;-55
2023/05/12 08:58:16;;;;;;;10.53;5.30;;;23.20;99.90;;;;;;5067303;28;20444;-56
2023/05/12 09:00:43;;;;;;;4.97;4.60;;;23.30;99.90;;;;;;5075411;28;20758;-53
2023/05/12 09:03:12;;;;;;;7.77;4.80;;;23.20;99.90;;;;;;5065422;28;20512;-54
2023/05/12 09:05:39;;;;;;;5.60;4.93;;;23.20;99.90;;;;;;5063890;28;20448;-53
2023/05/12 09:08:08;;;;;;;5.60;5.10;;;23.40;99.90;;;;;;5065797;28;20576;-53
2023/05/12 09:10:34;;;;;;;6.50;4.60;;;23.60;99.90;;;;;;5068200;28;21025;-53
2023/05/12 09:13:09;;;;;;;5.80;4.80;;;23.90;99.90;;;;;;5062393;28;20528;-53
2023/05/12 09:15:40;;;;;;;6.00;4.20;;;24.10;99.90;;;;;;5068602;28;20853;-52
2023/05/12 09:18:05;;;;;;;5.30;4.67;;;24.30;99.90;;;;;;5068744;28;20443;-53
2023/05/12 09:20:31;;;;;;;6.17;5.27;;;24.50;99.90;;;;;;5068970;28;20468;-54
2023/05/12 09:22:57;;;;;;;6.13;4.33;;;24.50;99.90;;;;;;5067145;28;20625;-54
2023/05/12 09:25:22;;;;;;;4.43;4.07;;;24.50;99.90;;;;;;5061252;28;20450;-54
2023/05/12 09:27:53;;;;;;;6.03;3.60;;;24.60;99.90;;;;;;5068277;28;20315;-55
2023/05/12 09:30:28;;;;;;;5.90;4.93;;;24.90;99.90;;;;;;5064388;28;20190;-56
2023/05/12 09:33:13;;;;;;;5.63;4.77;;;25.00;99.90;;;;;;5065863;28;20522;-52
2023/05/12 09:35:40;;;;;;;7.13;4.03;;;24.80;99.90;;;;;;5064702;28;20451;-54
2023/05/12 09:38:09;;;;;;;5.13;4.63;;;24.70;99.90;;;;;;5068237;28;20487;-54
2023/05/12 09:40:35;;;;;;;5.37;4.63;;;24.90;99.90;;;;;;5064470;28;20873;-52
2023/05/12 09:43:02;;;;;;;4.47;4.00;;;24.90;99.90;;;;;;5066989;28;20951;-53
2023/05/12 09:45:31;;;;;;;6.23;4.27;;;24.80;99.90;;;;;;5066869;28;20457;-53
2023/05/12 09:48:07;;;;;;;4.80;4.03;;;25.00;99.90;;;;;;5068600;28;20818;-54
2023/05/12 09:50:32;;;;;;;6.83;6.33;;;25.00;99.90;;;;;;5068152;28;20531;-54
2023/05/12 09:52:58;;;;;;;4.40;3.50;;;24.70;99.90;;;;;;5077042;28;21160;-53
2023/05/12 09:55:23;;;;;;;7.00;3.60;;;24.80;99.90;;;;;;5092446;28;20243;-53
2023/05/12 09:57:49;;;;;;;5.17;4.13;;;24.90;99.90;;;;;;5077801;28;20245;-54
2023/05/12 10:00:18;;;;;;;3.73;3.43;;;25.20;99.90;;;;;;5072445;28;20485;-55
2023/05/12 10:02:48;;;;;;;5.90;4.20;;;25.30;99.90;;;;;;5072547;28;21005;-53
2023/05/12 10:05:18;;;;;;;12.00;6.77;;;25.60;99.90;;;;;;5072317;28;20546;-53
2023/05/12 10:07:46;;;;;;;18.80;10.13;;;25.80;99.90;;;;;;5089236;28;20527;-53
2023/05/12 10:10:20;;;;;;;4.90;4.40;;;25.90;99.90;;;;;;5092154;28;20486;-54
2023/05/12 10:12:47;;;;;;;7.23;5.27;;;26.00;99.90;;;;;;5092479;28;20448;-53
2023/05/12 10:15:14;;;;;;;3.93;3.63;;;26.00;99.90;;;;;;5092642;28;20437;-54
2023/05/12 10:17:41;;;;;;;4.97;3.40;;;25.90;99.90;;;;;;5092178;28;20461;-54
2023/05/12 10:20:07;;;;;;;4.07;3.70;;;25.90;99.90;;;;;;5092391;28;20470;-53
2023/05/12 10:22:34;;;;;;;4.10;3.70;;;26.20;99.90;;;;;;5091992;28;20480;-54
2023/05/12 10:25:01;;;;;;;8.13;5.07;;;26.20;99.90;;;;;;5090174;28;20447;-53
2023/05/12 10:27:27;;;;;;;5.93;4.03;;;26.30;99.90;;;;;;5072087;28;20461;-55
2023/05/12 10:29:54;;;;;;;5.20;4.37;;;26.30;99.90;;;;;;5067821;28;20986;-54
2023/05/12 10:32:20;;;;;;;8.43;5.53;;;26.20;99.90;;;;;;5069390;28;20455;-53
2023/05/12 10:34:45;;;;;;;4.77;3.53;;;26.00;99.90;;;;;;5071597;28;20448;-54
2023/05/12 10:37:12;;;;;;;4.87;4.30;;;26.30;99.90;;;;;;5069642;28;20191;-52
2023/05/12 10:39:47;;;;;;;4.73;3.83;;;26.40;99.90;;;;;;5071223;28;20188;-54
2023/05/12 10:42:16;;;;;;;4.80;4.30;;;26.50;99.90;;;;;;5070490;28;20495;-52
2023/05/12 10:44:55;;;;;;;6.03;4.50;;;26.30;99.90;;;;;;5072000;28;20476;-53
2023/05/12 10:47:25;;;;;;;5.40;4.00;;;25.60;99.90;;;;;;5060318;28;20451;-52
2023/05/12 10:49:58;;;;;;;5.10;4.60;;;25.50;99.90;;;;;;5069236;28;20948;-54
2023/05/12 10:52:24;;;;;;;8.73;4.70;;;25.90;99.90;;;;;;5065555;28;20453;-55
2023/05/12 10:54:49;;;;;;;5.03;4.43;;;26.30;99.90;;;;;;5068390;28;20453;-53
2023/05/12 10:57:20;;;;;;;5.93;4.00;;;26.50;99.90;;;;;;5061682;28;20233;-54
2023/05/12 10:59:50;;;;;;;4.30;3.90;;;26.50;99.90;;;;;;5068908;28;20526;-53
2023/05/12 11:02:17;;;;;;;7.27;3.87;;;26.10;99.90;;;;;;5065336;28;20491;-53
2023/05/12 11:04:51;;;;;;;4.60;3.87;;;26.00;99.90;;;;;;5065304;28;20480;-55
2023/05/12 11:07:28;;;;;;;5.07;4.00;;;26.00;99.90;;;;;;5068457;28;20495;-54
2023/05/12 11:09:56;;;;;;;5.47;4.90;;;26.70;99.90;;;;;;5065241;28;20468;-53
2023/05/12 11:12:22;;;;;;;4.83;4.43;;;27.00;99.90;;;;;;5065457;28;20442;-54
2023/05/12 11:14:48;;;;;;;6.53;5.03;;;26.80;99.90;;;;;;5066264;28;20443;-53
2023/05/12 11:17:14;;;;;;;4.80;4.40;;;26.50;99.90;;;;;;5066131;28;20478;-55
2023/05/12 11:19:49;;;;;;;7.00;4.13;;;26.20;99.90;;;;;;5067586;28;20213;-54
2023/05/12 11:22:20;;;;;;;4.57;4.17;;;25.90;99.90;;;;;;5066090;28;20465;-52
2023/05/12 11:24:48;;;;;;;5.00;4.60;;;25.70;99.90;;;;;;5063540;28;20457;-54
2023/05/12 11:27:18;;;;;;;5.67;4.33;;;25.30;99.90;;;;;;5070144;28;20916;-52
2023/05/12 11:29:53;;;;;;;4.70;4.40;;;25.20;99.90;;;;;;5079705;28;21001;-54
2023/05/12 11:32:19;;;;;;;5.70;5.20;;;25.10;99.90;;;;;;5061376;28;20445;-53
2023/05/12 11:34:46;;;;;;;5.77;5.27;;;24.70;99.90;;;;;;5064724;28;20464;-53
2023/05/12 11:37:11;;;;;;;5.40;4.90;;;25.00;99.90;;;;;;5065284;28;20660;-53
2023/05/12 11:39:37;;;;;;;6.73;5.30;;;26.10;99.90;;;;;;5064270;28;20487;-56
2023/05/12 11:42:06;;;;;;;7.00;6.30;;;24.70;99.90;;;;;;5064424;28;20194;-54
2023/05/12 11:44:32;;;;;;;6.63;5.93;;;24.70;99.90;;;;;;5062390;28;20187;-54
2023/05/12 11:47:02;;;;;;;6.07;5.57;;;24.70;99.90;;;;;;5059279;28;20448;-53
2023/05/12 11:49:29;;;;;;;7.00;6.17;;;24.50;99.90;;;;;;5064033;28;20222;-54
2023/05/12 11:52:01;;;;;;;6.37;5.77;;;24.50;99.90;;;;;;5064554;28;20507;-53
2023/05/12 11:54:30;;;;;;;10.00;6.03;;;24.30;99.90;;;;;;5068372;28;20449;-53
2023/05/12 11:56:56;;;;;;;13.27;6.33;;;24.10;99.90;;;;;;5065215;28;20500;-53
2023/05/12 11:59:29;;;;;;;8.17;7.00;;;24.10;99.90;;;;;;5068692;28;20437;-55
2023/05/12 12:01:57;;;;;;;6.57;5.97;;;24.30;99.90;;;;;;5069949;28;20734;-54
2023/05/12 12:04:36;;;;;;;8.33;5.50;;;24.50;99.90;;;;;;5065997;28;20468;-53
2023/05/12 12:07:04;;;;;;;6.50;5.60;;;24.80;99.90;;;;;;5066744;28;20454;-54
2023/05/12 12:09:39;;;;;;;6.87;5.53;;;25.00;99.90;;;;;;5062299;28;20473;-54
2023/05/12 12:12:06;;;;;;;6.23;5.63;;;25.20;99.90;;;;;;5068942;28;20488;-55
2023/05/12 12:14:33;;;;;;;6.93;4.80;;;25.20;99.90;;;;;;5063628;28;20449;-54
2023/05/12 12:16:59;;;;;;;5.70;5.20;;;25.00;99.90;;;;;;5065282;28;20825;-55
2023/05/12 12:19:26;;;;;;;5.10;4.60;;;25.00;99.90;;;;;;5065962;28;20506;-55
2023/05/12 12:21:55;;;;;;;5.77;4.57;;;24.80;99.90;;;;;;5060850;28;20447;-53
2023/05/12 12:24:22;;;;;;;5.10;4.70;;;24.70;99.90;;;;;;5069829;28;20437;-53
2023/05/12 12:26:47;;;;;;;6.13;5.60;;;24.70;99.90;;;;;;5062147;28;20451;-55
2023/05/12 12:29:13;;;;;;;6.43;5.83;;;24.80;99.90;;;;;;5067444;28;20472;-53
2023/05/12 12:31:39;;;;;;;6.70;6.10;;;24.70;99.90;;;;;;5065239;28;20220;-54
2023/05/12 12:34:04;;;;;;;6.10;5.50;;;24.40;99.90;;;;;;5069758;28;20575;-53
2023/05/12 12:36:31;;;;;;;6.60;5.43;;;24.40;99.90;;;;;;5067446;28;20189;-54
2023/05/12 12:38:57;;;;;;;6.23;5.63;;;24.50;99.90;;;;;;5067912;28;20283;-53
2023/05/12 12:41:24;;;;;;;6.40;5.70;;;24.60;99.90;;;;;;5067540;28;20455;-53
2023/05/12 12:43:51;;;;;;;8.93;5.80;;;24.80;99.90;;;;;;5065529;28;20451;-53